[x] [x]
.:Aeroklub Partizánske:. |  .:Fotogaléria:. |  .:Videogaléria:. |  .:Foto týždňa:. |  .:Kniha návštev:. |  .:Linky:. |  .:Moje konto:.
 MENU [x]

 METEO [x]

 FotoGaléria [x]

 Slnko [x]
LZPT Partizánske
48°37'N 18°20'E
Východ: 5:40 AM
Západ: 7:51 PM
LZIB Bratislava
48°10'N 17°12'E
Východ: 5:46 AM
Západ: 7:54 PM
LZKZ Košice
48°39'N 21°14'E
Východ: 5:28 AM
Západ: 7:39 PM

 Jazyky [x]
Vyberte jazyk rozhrania:

Slovak English German Polish


  SPRÁVY METAR - ČESKÁ REPUBLIKA
Brno-TuřanyLKTB 250130Z VRB01KT CAVOK 07/03 Q1014 NOSIGdekóduj
ČáslavLKCV 250100Z 15004KT CAVOK 09/05 Q1013 NOSIG RMK BLU BLUdekóduj
HolešovLKHO 010800Z VRB03KT CAVOK 23/17 Q1019dekóduj
Hradec Královedekóduj
Karlovy VaryLKKV 250100Z VRB01KT CAVOK 05/00 Q1013dekóduj
KunoviceLKKU 241400Z 20010KT CAVOK 20/06 Q1014dekóduj
LiberecLKLB 020602Z 16003KT 9999 FEW016 BKN043 M01/M02 Q1016dekóduj
Mariánsky Láznědekóduj
Náměšť nad OslavouLKNA 250100Z 36003KT 240V010 CAVOK 09/05 Q1014dekóduj
Ostrava-MošnovLKMT 250130Z 22003KT CAVOK 08/05 Q1014 NOSIGdekóduj
PardubiceLKPD 250100Z VRB01KT CAVOK 07/06 Q1013dekóduj
Praha-KbelyLKKB 250100Z 21008KT CAVOK 09/04 Q1013dekóduj
Praha-RuzyněLKPR 250130Z 22007KT CAVOK 07/02 Q1013 NOSIGdekóduj
PřerovLKPO 010000Z 05005KT CAVOK 04/01 Q1013dekóduj
 FreeFly INFO [x]
COROWA 2009


COROWA 2009


COROWA 2009



 LZPT webcam [x]

 Foto týždňa [x]

 KBO SNA [x]

 Login [x]
Užívateľské meno

Heslo


Ešte nemáš konto? Môžeš si ho vytvoriť. Registrovaný užívateľ má množstvo výhod, napr. posielanie okamžitých správ iným užívateľom, posielanie komentárov s vlastným menom, možnosť pridávať fotografie do galérie...

 Kto je online [x]
Momentálne je online 18 hostí a 0 členov.

Ste anonymný užívateľ. Zaregistrovať sa môžete tu

DETAILY

 Linky [x]

 Počítadlo návštev [x]
Zaznamenali sme
34220744
strán zobrazených od júna 2003

Počet dnešných unikátnych IP adries:
0



www.freefly.sk
Powered by SzMsoft ©2003-2005. Polish translations by Cezary Dąbek. Flying server www.freefly.sk is administrated by maro@freefly.sk - www.artweb.freefly.sk
PHP-Nuke Copyright © 2004 by Francisco Burzi. This is free software, and you may redistribute it under the GPL. PHP-Nuke comes with absolutely no warranty, for details, see the license.